sensor_id;sensor_type;location;lat;lon;timestamp;P1;durP1;ratioP1;P2;durP2;ratioP2
23539;SDS011;11947;50.810;4.394;2023-04-01T00:00:47;7.82;;;2.10;;
23539;SDS011;11947;50.810;4.394;2023-04-01T00:03:13;6.65;;;1.83;;
23539;SDS011;11947;50.810;4.394;2023-04-01T00:05:39;10.40;;;2.10;;
23539;SDS011;11947;50.810;4.394;2023-04-01T00:08:05;10.60;;;2.20;;
23539;SDS011;11947;50.810;4.394;2023-04-01T00:10:30;12.82;;;2.75;;
23539;SDS011;11947;50.810;4.394;2023-04-01T00:12:56;8.38;;;2.25;;
23539;SDS011;11947;50.810;4.394;2023-04-01T00:15:21;15.40;;;2.55;;
23539;SDS011;11947;50.810;4.394;2023-04-01T00:17:47;8.63;;;2.30;;
23539;SDS011;11947;50.810;4.394;2023-04-01T00:20:13;6.95;;;2.08;;
23539;SDS011;11947;50.810;4.394;2023-04-01T00:22:39;8.13;;;2.10;;
23539;SDS011;11947;50.810;4.394;2023-04-01T00:25:06;8.20;;;2.15;;
23539;SDS011;11947;50.810;4.394;2023-04-01T00:27:31;7.22;;;1.90;;
23539;SDS011;11947;50.810;4.394;2023-04-01T00:29:57;10.65;;;2.10;;
23539;SDS011;11947;50.810;4.394;2023-04-01T00:32:23;10.52;;;2.15;;
23539;SDS011;11947;50.810;4.394;2023-04-01T00:34:52;6.75;;;1.80;;
23539;SDS011;11947;50.810;4.394;2023-04-01T00:37:18;8.13;;;1.92;;
23539;SDS011;11947;50.810;4.394;2023-04-01T00:39:46;5.20;;;1.80;;
23539;SDS011;11947;50.810;4.394;2023-04-01T00:42:11;6.18;;;1.75;;
23539;SDS011;11947;50.810;4.394;2023-04-01T00:44:38;6.47;;;2.20;;
23539;SDS011;11947;50.810;4.394;2023-04-01T00:47:05;9.48;;;2.08;;
23539;SDS011;11947;50.810;4.394;2023-04-01T00:49:32;8.60;;;2.13;;
23539;SDS011;11947;50.810;4.394;2023-04-01T00:52:02;7.90;;;1.92;;
23539;SDS011;11947;50.810;4.394;2023-04-01T00:54:30;6.28;;;2.25;;
23539;SDS011;11947;50.810;4.394;2023-04-01T00:57:01;10.48;;;2.38;;
23539;SDS011;11947;50.810;4.394;2023-04-01T00:59:32;7.53;;;2.45;;
23539;SDS011;11947;50.810;4.394;2023-04-01T01:02:02;8.07;;;2.38;;
23539;SDS011;11947;50.810;4.394;2023-04-01T01:04:31;9.18;;;2.92;;
23539;SDS011;11947;50.810;4.394;2023-04-01T01:07:01;5.93;;;2.58;;
23539;SDS011;11947;50.810;4.394;2023-04-01T01:15:32;6.13;;;2.53;;
23539;SDS011;11947;50.810;4.394;2023-04-01T01:18:11;7.32;;;2.50;;
23539;SDS011;11947;50.810;4.394;2023-04-01T01:21:04;6.80;;;2.63;;
23539;SDS011;11947;50.810;4.394;2023-04-01T01:37:25;8.93;;;2.95;;
23539;SDS011;11947;50.810;4.394;2023-04-01T01:39:55;7.53;;;2.85;;
23539;SDS011;11947;50.810;4.394;2023-04-01T01:42:25;9.45;;;3.17;;
23539;SDS011;11947;50.810;4.394;2023-04-01T01:44:52;10.82;;;2.78;;
23539;SDS011;11947;50.810;4.394;2023-04-01T01:47:20;7.95;;;3.05;;
23539;SDS011;11947;50.810;4.394;2023-04-01T01:49:48;6.05;;;2.50;;
23539;SDS011;11947;50.810;4.394;2023-04-01T01:52:16;6.82;;;2.72;;
23539;SDS011;11947;50.810;4.394;2023-04-01T01:54:52;8.77;;;3.20;;
23539;SDS011;11947;50.810;4.394;2023-04-01T01:57:20;10.02;;;2.72;;
23539;SDS011;11947;50.810;4.394;2023-04-01T02:02:19;8.15;;;3.72;;
23539;SDS011;11947;50.810;4.394;2023-04-01T02:04:47;11.25;;;3.80;;
23539;SDS011;11947;50.810;4.394;2023-04-01T02:07:20;12.40;;;4.40;;
23539;SDS011;11947;50.810;4.394;2023-04-01T02:09:50;10.48;;;4.47;;
23539;SDS011;11947;50.810;4.394;2023-04-01T02:12:16;12.77;;;4.15;;
23539;SDS011;11947;50.810;4.394;2023-04-01T02:17:25;17.55;;;5.18;;
23539;SDS011;11947;50.810;4.394;2023-04-01T02:19:56;11.82;;;4.93;;
23539;SDS011;11947;50.810;4.394;2023-04-01T02:22:28;14.18;;;5.30;;
23539;SDS011;11947;50.810;4.394;2023-04-01T02:25:00;11.18;;;4.78;;
23539;SDS011;11947;50.810;4.394;2023-04-01T02:27:29;11.60;;;5.25;;
23539;SDS011;11947;50.810;4.394;2023-04-01T02:29:56;15.73;;;5.40;;
23539;SDS011;11947;50.810;4.394;2023-04-01T02:32:22;15.43;;;5.43;;
23539;SDS011;11947;50.810;4.394;2023-04-01T02:34:49;15.77;;;4.85;;
23539;SDS011;11947;50.810;4.394;2023-04-01T02:37:15;13.18;;;4.80;;
23539;SDS011;11947;50.810;4.394;2023-04-01T02:39:41;14.65;;;5.05;;
23539;SDS011;11947;50.810;4.394;2023-04-01T02:42:08;11.98;;;4.95;;
23539;SDS011;11947;50.810;4.394;2023-04-01T02:44:33;10.57;;;4.50;;
23539;SDS011;11947;50.810;4.394;2023-04-01T02:46:59;15.75;;;5.13;;
23539;SDS011;11947;50.810;4.394;2023-04-01T02:49:25;11.30;;;4.80;;
23539;SDS011;11947;50.810;4.394;2023-04-01T02:51:51;13.63;;;4.38;;
23539;SDS011;11947;50.810;4.394;2023-04-01T02:54:17;16.45;;;4.97;;
23539;SDS011;11947;50.810;4.394;2023-04-01T02:56:43;12.32;;;4.55;;
23539;SDS011;11947;50.810;4.394;2023-04-01T02:59:09;16.08;;;5.03;;
23539;SDS011;11947;50.810;4.394;2023-04-01T03:01:34;16.08;;;4.68;;
23539;SDS011;11947;50.810;4.394;2023-04-01T03:04:00;15.73;;;4.90;;
23539;SDS011;11947;50.810;4.394;2023-04-01T03:06:26;21.83;;;5.65;;
23539;SDS011;11947;50.810;4.394;2023-04-01T03:08:51;18.52;;;5.53;;
23539;SDS011;11947;50.810;4.394;2023-04-01T03:11:17;13.82;;;5.20;;
23539;SDS011;11947;50.810;4.394;2023-04-01T03:13:43;18.65;;;5.28;;
23539;SDS011;11947;50.810;4.394;2023-04-01T03:16:08;19.23;;;5.47;;
23539;SDS011;11947;50.810;4.394;2023-04-01T03:18:34;20.15;;;6.18;;
23539;SDS011;11947;50.810;4.394;2023-04-01T03:21:16;16.55;;;6.25;;
23539;SDS011;11947;50.810;4.394;2023-04-01T03:23:43;20.00;;;6.60;;
23539;SDS011;11947;50.810;4.394;2023-04-01T03:26:09;15.35;;;6.05;;
23539;SDS011;11947;50.810;4.394;2023-04-01T03:28:35;16.00;;;6.75;;
23539;SDS011;11947;50.810;4.394;2023-04-01T03:31:00;16.02;;;6.20;;
23539;SDS011;11947;50.810;4.394;2023-04-01T03:33:26;21.50;;;6.72;;
23539;SDS011;11947;50.810;4.394;2023-04-01T03:35:51;18.45;;;6.53;;
23539;SDS011;11947;50.810;4.394;2023-04-01T03:38:17;135.25;;;12.38;;
23539;SDS011;11947;50.810;4.394;2023-04-01T03:40:43;28.52;;;9.15;;
23539;SDS011;11947;50.810;4.394;2023-04-01T03:43:09;20.67;;;7.70;;
23539;SDS011;11947;50.810;4.394;2023-04-01T03:45:36;26.73;;;8.23;;
23539;SDS011;11947;50.810;4.394;2023-04-01T03:50:34;21.50;;;6.80;;
23539;SDS011;11947;50.810;4.394;2023-04-01T03:52:59;25.23;;;7.28;;
23539;SDS011;11947;50.810;4.394;2023-04-01T03:55:25;20.98;;;7.28;;
23539;SDS011;11947;50.810;4.394;2023-04-01T03:57:51;19.13;;;7.03;;
23539;SDS011;11947;50.810;4.394;2023-04-01T04:00:16;21.50;;;7.28;;
23539;SDS011;11947;50.810;4.394;2023-04-01T04:02:42;24.50;;;6.80;;
23539;SDS011;11947;50.810;4.394;2023-04-01T04:05:08;27.20;;;7.18;;
23539;SDS011;11947;50.810;4.394;2023-04-01T04:07:36;20.38;;;6.50;;
23539;SDS011;11947;50.810;4.394;2023-04-01T04:10:02;25.30;;;7.03;;
23539;SDS011;11947;50.810;4.394;2023-04-01T04:12:28;22.88;;;7.45;;
23539;SDS011;11947;50.810;4.394;2023-04-01T04:14:54;24.17;;;6.45;;
23539;SDS011;11947;50.810;4.394;2023-04-01T04:17:20;19.83;;;6.35;;
23539;SDS011;11947;50.810;4.394;2023-04-01T04:19:46;20.23;;;6.53;;
23539;SDS011;11947;50.810;4.394;2023-04-01T04:22:11;18.33;;;6.40;;
23539;SDS011;11947;50.810;4.394;2023-04-01T04:24:37;18.80;;;7.10;;
23539;SDS011;11947;50.810;4.394;2023-04-01T04:27:03;21.30;;;6.88;;
23539;SDS011;11947;50.810;4.394;2023-04-01T04:29:29;18.08;;;5.97;;
23539;SDS011;11947;50.810;4.394;2023-04-01T04:31:54;19.40;;;6.03;;
23539;SDS011;11947;50.810;4.394;2023-04-01T04:34:20;16.42;;;5.35;;
23539;SDS011;11947;50.810;4.394;2023-04-01T04:36:47;17.60;;;6.05;;
23539;SDS011;11947;50.810;4.394;2023-04-01T04:39:13;13.23;;;5.43;;
23539;SDS011;11947;50.810;4.394;2023-04-01T04:41:40;19.80;;;6.40;;
23539;SDS011;11947;50.810;4.394;2023-04-01T04:44:06;12.88;;;5.63;;
23539;SDS011;11947;50.810;4.394;2023-04-01T04:46:32;14.93;;;5.55;;
23539;SDS011;11947;50.810;4.394;2023-04-01T04:48:58;15.60;;;5.30;;
23539;SDS011;11947;50.810;4.394;2023-04-01T04:51:24;11.90;;;5.03;;
23539;SDS011;11947;50.810;4.394;2023-04-01T04:53:50;11.10;;;5.35;;
23539;SDS011;11947;50.810;4.394;2023-04-01T04:56:19;14.43;;;5.10;;
23539;SDS011;11947;50.810;4.394;2023-04-01T04:58:45;13.05;;;4.90;;
23539;SDS011;11947;50.810;4.394;2023-04-01T05:01:13;14.65;;;5.65;;
23539;SDS011;11947;50.810;4.394;2023-04-01T05:03:40;16.67;;;5.82;;
23539;SDS011;11947;50.810;4.394;2023-04-01T05:06:07;16.55;;;5.50;;
23539;SDS011;11947;50.810;4.394;2023-04-01T05:08:34;11.52;;;5.15;;
23539;SDS011;11947;50.810;4.394;2023-04-01T05:11:00;14.02;;;5.55;;
23539;SDS011;11947;50.810;4.394;2023-04-01T05:13:27;15.35;;;4.97;;
23539;SDS011;11947;50.810;4.394;2023-04-01T05:15:53;10.70;;;5.53;;
23539;SDS011;11947;50.810;4.394;2023-04-01T05:18:19;12.65;;;4.80;;
23539;SDS011;11947;50.810;4.394;2023-04-01T05:20:49;11.50;;;4.50;;
23539;SDS011;11947;50.810;4.394;2023-04-01T05:23:16;16.35;;;5.38;;
23539;SDS011;11947;50.810;4.394;2023-04-01T05:25:42;15.48;;;5.13;;
23539;SDS011;11947;50.810;4.394;2023-04-01T05:28:08;14.60;;;5.22;;
23539;SDS011;11947;50.810;4.394;2023-04-01T05:30:34;18.85;;;4.95;;
23539;SDS011;11947;50.810;4.394;2023-04-01T05:32:59;15.77;;;5.43;;
23539;SDS011;11947;50.810;4.394;2023-04-01T05:35:25;13.48;;;5.68;;
23539;SDS011;11947;50.810;4.394;2023-04-01T05:37:50;18.70;;;5.97;;
23539;SDS011;11947;50.810;4.394;2023-04-01T05:40:16;18.05;;;5.63;;
23539;SDS011;11947;50.810;4.394;2023-04-01T05:42:42;16.95;;;5.65;;
23539;SDS011;11947;50.810;4.394;2023-04-01T05:45:07;18.15;;;6.50;;
23539;SDS011;11947;50.810;4.394;2023-04-01T05:47:33;18.38;;;6.53;;
23539;SDS011;11947;50.810;4.394;2023-04-01T05:49:59;17.63;;;6.80;;
23539;SDS011;11947;50.810;4.394;2023-04-01T05:52:25;19.83;;;6.57;;
23539;SDS011;11947;50.810;4.394;2023-04-01T05:54:51;22.25;;;7.75;;
23539;SDS011;11947;50.810;4.394;2023-04-01T05:57:16;24.40;;;7.38;;
23539;SDS011;11947;50.810;4.394;2023-04-01T05:59:42;25.70;;;7.65;;
23539;SDS011;11947;50.810;4.394;2023-04-01T06:02:08;23.90;;;8.05;;
23539;SDS011;11947;50.810;4.394;2023-04-01T06:04:37;27.77;;;7.53;;
23539;SDS011;11947;50.810;4.394;2023-04-01T06:07:11;23.10;;;7.50;;
23539;SDS011;11947;50.810;4.394;2023-04-01T06:09:41;29.00;;;9.02;;
23539;SDS011;11947;50.810;4.394;2023-04-01T06:39:59;26.67;;;8.10;;
23539;SDS011;11947;50.810;4.394;2023-04-01T06:42:49;26.65;;;8.35;;
23539;SDS011;11947;50.810;4.394;2023-04-01T06:45:36;31.20;;;8.70;;
23539;SDS011;11947;50.810;4.394;2023-04-01T06:50:56;24.90;;;7.57;;
23539;SDS011;11947;50.810;4.394;2023-04-01T06:53:56;24.45;;;7.35;;
23539;SDS011;11947;50.810;4.394;2023-04-01T06:56:27;26.73;;;7.53;;
23539;SDS011;11947;50.810;4.394;2023-04-01T06:58:58;23.90;;;7.63;;
23539;SDS011;11947;50.810;4.394;2023-04-01T07:01:45;27.05;;;7.05;;
23539;SDS011;11947;50.810;4.394;2023-04-01T07:06:59;17.65;;;6.65;;
23539;SDS011;11947;50.810;4.394;2023-04-01T07:09:40;18.90;;;6.53;;
23539;SDS011;11947;50.810;4.394;2023-04-01T07:12:51;17.02;;;6.05;;
23539;SDS011;11947;50.810;4.394;2023-04-01T07:14:58;17.00;;;5.68;;
23539;SDS011;11947;50.810;4.394;2023-04-01T07:17:36;15.70;;;5.68;;
23539;SDS011;11947;50.810;4.394;2023-04-01T07:22:44;16.52;;;5.60;;
23539;SDS011;11947;50.810;4.394;2023-04-01T07:25:14;12.55;;;5.53;;
23539;SDS011;11947;50.810;4.394;2023-04-01T07:27:43;12.40;;;5.32;;
23539;SDS011;11947;50.810;4.394;2023-04-01T07:30:16;12.20;;;4.93;;
23539;SDS011;11947;50.810;4.394;2023-04-01T07:35:39;13.93;;;5.78;;
23539;SDS011;11947;50.810;4.394;2023-04-01T07:38:26;16.02;;;5.55;;
23539;SDS011;11947;50.810;4.394;2023-04-01T07:51:58;11.63;;;4.43;;
23539;SDS011;11947;50.810;4.394;2023-04-01T07:54:34;8.45;;;3.95;;
23539;SDS011;11947;50.810;4.394;2023-04-01T07:57:32;8.25;;;3.33;;
23539;SDS011;11947;50.810;4.394;2023-04-01T08:00:21;8.80;;;3.38;;
23539;SDS011;11947;50.810;4.394;2023-04-01T08:02:56;5.75;;;2.95;;
23539;SDS011;11947;50.810;4.394;2023-04-01T08:05:39;7.30;;;3.40;;
23539;SDS011;11947;50.810;4.394;2023-04-01T08:20:10;4.20;;;2.45;;
23539;SDS011;11947;50.810;4.394;2023-04-01T08:22:27;5.07;;;2.60;;
23539;SDS011;11947;50.810;4.394;2023-04-01T08:24:54;6.15;;;2.67;;
23539;SDS011;11947;50.810;4.394;2023-04-01T08:27:26;5.75;;;3.22;;
23539;SDS011;11947;50.810;4.394;2023-04-01T08:30:06;5.03;;;3.00;;
23539;SDS011;11947;50.810;4.394;2023-04-01T08:35:30;5.10;;;2.53;;
23539;SDS011;11947;50.810;4.394;2023-04-01T08:38:05;5.03;;;2.20;;
23539;SDS011;11947;50.810;4.394;2023-04-01T08:46:22;4.35;;;2.08;;
23539;SDS011;11947;50.810;4.394;2023-04-01T08:49:10;4.80;;;2.40;;
23539;SDS011;11947;50.810;4.394;2023-04-01T08:57:56;3.60;;;1.85;;
23539;SDS011;11947;50.810;4.394;2023-04-01T09:00:41;5.05;;;2.00;;
23539;SDS011;11947;50.810;4.394;2023-04-01T09:09:11;5.53;;;2.20;;
23539;SDS011;11947;50.810;4.394;2023-04-01T09:15:16;5.35;;;2.40;;
23539;SDS011;11947;50.810;4.394;2023-04-01T09:23:28;4.82;;;2.30;;
23539;SDS011;11947;50.810;4.394;2023-04-01T09:38:00;5.80;;;2.75;;
23539;SDS011;11947;50.810;4.394;2023-04-01T09:43:26;5.35;;;3.08;;
23539;SDS011;11947;50.810;4.394;2023-04-01T09:46:11;4.90;;;2.67;;
23539;SDS011;11947;50.810;4.394;2023-04-01T10:13:11;6.93;;;2.95;;
23539;SDS011;11947;50.810;4.394;2023-04-01T10:21:16;6.22;;;3.80;;
23539;SDS011;11947;50.810;4.394;2023-04-01T10:32:03;4.38;;;2.42;;
23539;SDS011;11947;50.810;4.394;2023-04-01T10:37:07;6.78;;;3.22;;
23539;SDS011;11947;50.810;4.394;2023-04-01T10:52:18;7.80;;;4.35;;
23539;SDS011;11947;50.810;4.394;2023-04-01T10:58:08;10.93;;;5.70;;
23539;SDS011;11947;50.810;4.394;2023-04-01T11:06:35;8.48;;;3.55;;
23539;SDS011;11947;50.810;4.394;2023-04-01T11:12:03;7.32;;;3.92;;
23539;SDS011;11947;50.810;4.394;2023-04-01T11:25:50;6.13;;;3.67;;
23539;SDS011;11947;50.810;4.394;2023-04-01T11:28:26;7.15;;;3.58;;
23539;SDS011;11947;50.810;4.394;2023-04-01T11:34:10;7.18;;;3.10;;
23539;SDS011;11947;50.810;4.394;2023-04-01T11:37:14;5.10;;;3.00;;
23539;SDS011;11947;50.810;4.394;2023-04-01T11:40:02;5.63;;;3.40;;
23539;SDS011;11947;50.810;4.394;2023-04-01T11:42:45;6.00;;;3.03;;
23539;SDS011;11947;50.810;4.394;2023-04-01T11:45:36;6.60;;;3.10;;
23539;SDS011;11947;50.810;4.394;2023-04-01T11:53:26;5.40;;;3.50;;
23539;SDS011;11947;50.810;4.394;2023-04-01T11:59:57;6.85;;;3.70;;
23539;SDS011;11947;50.810;4.394;2023-04-01T12:08:20;4.90;;;3.22;;
23539;SDS011;11947;50.810;4.394;2023-04-01T12:10:59;4.72;;;3.15;;
23539;SDS011;11947;50.810;4.394;2023-04-01T12:14:01;5.07;;;2.92;;
23539;SDS011;11947;50.810;4.394;2023-04-01T12:17:02;5.75;;;3.63;;
23539;SDS011;11947;50.810;4.394;2023-04-01T12:26:15;7.60;;;3.63;;
23539;SDS011;11947;50.810;4.394;2023-04-01T12:28:45;5.03;;;3.33;;
23539;SDS011;11947;50.810;4.394;2023-04-01T12:31:46;7.75;;;3.67;;
23539;SDS011;11947;50.810;4.394;2023-04-01T12:46:12;10.38;;;5.75;;
23539;SDS011;11947;50.810;4.394;2023-04-01T12:51:54;14.40;;;5.80;;
23539;SDS011;11947;50.810;4.394;2023-04-01T12:57:26;15.52;;;7.68;;
23539;SDS011;11947;50.810;4.394;2023-04-01T13:08:58;11.35;;;5.82;;
23539;SDS011;11947;50.810;4.394;2023-04-01T13:17:36;11.77;;;5.88;;
23539;SDS011;11947;50.810;4.394;2023-04-01T13:28:39;19.63;;;7.97;;
23539;SDS011;11947;50.810;4.394;2023-04-01T13:34:21;9.15;;;4.93;;
23539;SDS011;11947;50.810;4.394;2023-04-01T13:42:57;9.57;;;5.32;;
23539;SDS011;11947;50.810;4.394;2023-04-01T13:48:39;7.15;;;4.47;;
23539;SDS011;11947;50.810;4.394;2023-04-01T13:51:50;5.82;;;3.05;;
23539;SDS011;11947;50.810;4.394;2023-04-01T13:54:45;6.07;;;2.90;;
23539;SDS011;11947;50.810;4.394;2023-04-01T14:05:42;4.60;;;2.42;;
23539;SDS011;11947;50.810;4.394;2023-04-01T14:08:17;3.90;;;2.13;;
23539;SDS011;11947;50.810;4.394;2023-04-01T14:19:39;3.42;;;2.35;;
23539;SDS011;11947;50.810;4.394;2023-04-01T14:27:51;4.68;;;2.33;;
23539;SDS011;11947;50.810;4.394;2023-04-01T14:36:14;9.55;;;2.22;;
23539;SDS011;11947;50.810;4.394;2023-04-01T14:49:37;2.83;;;1.80;;
23539;SDS011;11947;50.810;4.394;2023-04-01T14:52:11;2.75;;;1.70;;
23539;SDS011;11947;50.810;4.394;2023-04-01T14:54:49;4.00;;;2.42;;
23539;SDS011;11947;50.810;4.394;2023-04-01T14:57:29;5.47;;;2.92;;
23539;SDS011;11947;50.810;4.394;2023-04-01T15:00:00;9.05;;;5.75;;
23539;SDS011;11947;50.810;4.394;2023-04-01T15:08:09;3.72;;;1.90;;
23539;SDS011;11947;50.810;4.394;2023-04-01T15:10:53;3.15;;;1.58;;
23539;SDS011;11947;50.810;4.394;2023-04-01T15:16:11;3.55;;;1.67;;
23539;SDS011;11947;50.810;4.394;2023-04-01T15:19:11;3.13;;;1.80;;
23539;SDS011;11947;50.810;4.394;2023-04-01T15:30:32;3.13;;;2.10;;
23539;SDS011;11947;50.810;4.394;2023-04-01T15:34:07;4.72;;;2.13;;
23539;SDS011;11947;50.810;4.394;2023-04-01T15:39:22;4.03;;;2.40;;
23539;SDS011;11947;50.810;4.394;2023-04-01T15:45:03;5.25;;;3.03;;
23539;SDS011;11947;50.810;4.394;2023-04-01T15:47:44;4.38;;;2.60;;
23539;SDS011;11947;50.810;4.394;2023-04-01T15:50:24;5.00;;;2.75;;
23539;SDS011;11947;50.810;4.394;2023-04-01T15:53:17;4.78;;;2.25;;
23539;SDS011;11947;50.810;4.394;2023-04-01T16:20:53;2.10;;;1.52;;
23539;SDS011;11947;50.810;4.394;2023-04-01T16:23:47;3.97;;;1.77;;
23539;SDS011;11947;50.810;4.394;2023-04-01T16:26:22;3.38;;;1.70;;
23539;SDS011;11947;50.810;4.394;2023-04-01T16:31:50;3.08;;;2.10;;
23539;SDS011;11947;50.810;4.394;2023-04-01T16:34:30;6.13;;;3.22;;
23539;SDS011;11947;50.810;4.394;2023-04-01T16:37:21;6.68;;;3.58;;
23539;SDS011;11947;50.810;4.394;2023-04-01T16:48:10;3.65;;;2.22;;
23539;SDS011;11947;50.810;4.394;2023-04-01T16:53:37;2.88;;;2.10;;
23539;SDS011;11947;50.810;4.394;2023-04-01T16:56:23;3.17;;;1.90;;
23539;SDS011;11947;50.810;4.394;2023-04-01T17:04:45;3.92;;;2.60;;
23539;SDS011;11947;50.810;4.394;2023-04-01T17:07:26;3.55;;;2.35;;
23539;SDS011;11947;50.810;4.394;2023-04-01T17:10:42;3.92;;;2.47;;
23539;SDS011;11947;50.810;4.394;2023-04-01T17:15:55;6.88;;;3.03;;
23539;SDS011;11947;50.810;4.394;2023-04-01T17:24:42;6.53;;;3.08;;
23539;SDS011;11947;50.810;4.394;2023-04-01T17:27:48;5.18;;;2.88;;
23539;SDS011;11947;50.810;4.394;2023-04-01T17:41:58;7.38;;;3.90;;
23539;SDS011;11947;50.810;4.394;2023-04-01T17:58:29;5.05;;;3.20;;
23539;SDS011;11947;50.810;4.394;2023-04-01T18:09:17;8.48;;;3.58;;
23539;SDS011;11947;50.810;4.394;2023-04-01T18:17:12;7.28;;;4.18;;
23539;SDS011;11947;50.810;4.394;2023-04-01T18:22:44;6.95;;;4.15;;
23539;SDS011;11947;50.810;4.394;2023-04-01T18:27:52;7.05;;;4.47;;
23539;SDS011;11947;50.810;4.394;2023-04-01T18:30:31;8.52;;;5.18;;
23539;SDS011;11947;50.810;4.394;2023-04-01T18:41:13;14.68;;;7.47;;
23539;SDS011;11947;50.810;4.394;2023-04-01T18:52:44;16.63;;;8.88;;
23539;SDS011;11947;50.810;4.394;2023-04-01T18:57:52;17.88;;;9.23;;
23539;SDS011;11947;50.810;4.394;2023-04-01T19:00:26;18.27;;;9.23;;
23539;SDS011;11947;50.810;4.394;2023-04-01T19:05:40;18.05;;;10.38;;
23539;SDS011;11947;50.810;4.394;2023-04-01T19:08:29;18.90;;;10.55;;
23539;SDS011;11947;50.810;4.394;2023-04-01T19:27:50;34.90;;;16.38;;
23539;SDS011;11947;50.810;4.394;2023-04-01T19:30:32;30.27;;;14.43;;
23539;SDS011;11947;50.810;4.394;2023-04-01T19:33:15;33.13;;;15.52;;
23539;SDS011;11947;50.810;4.394;2023-04-01T19:36:00;39.97;;;18.60;;
23539;SDS011;11947;50.810;4.394;2023-04-01T19:41:50;45.22;;;18.63;;
23539;SDS011;11947;50.810;4.394;2023-04-01T19:49:47;42.25;;;17.67;;
23539;SDS011;11947;50.810;4.394;2023-04-01T19:52:48;43.28;;;17.27;;
23539;SDS011;11947;50.810;4.394;2023-04-01T19:55:28;40.65;;;17.90;;
23539;SDS011;11947;50.810;4.394;2023-04-01T20:00:59;43.83;;;16.92;;
23539;SDS011;11947;50.810;4.394;2023-04-01T20:03:39;39.50;;;17.20;;
23539;SDS011;11947;50.810;4.394;2023-04-01T20:11:59;39.15;;;14.63;;
23539;SDS011;11947;50.810;4.394;2023-04-01T20:14:46;33.95;;;15.23;;
23539;SDS011;11947;50.810;4.394;2023-04-01T20:19:55;30.23;;;12.43;;
23539;SDS011;11947;50.810;4.394;2023-04-01T20:25:12;34.35;;;13.52;;
23539;SDS011;11947;50.810;4.394;2023-04-01T20:27:44;36.30;;;13.55;;
23539;SDS011;11947;50.810;4.394;2023-04-01T21:04:30;38.25;;;12.93;;
23539;SDS011;11947;50.810;4.394;2023-04-01T21:07:01;34.22;;;12.80;;
23539;SDS011;11947;50.810;4.394;2023-04-01T21:15:11;38.10;;;14.48;;
23539;SDS011;11947;50.810;4.394;2023-04-01T21:26:23;41.92;;;14.82;;
23539;SDS011;11947;50.810;4.394;2023-04-01T21:29:18;35.53;;;14.48;;
23539;SDS011;11947;50.810;4.394;2023-04-01T21:31:58;41.75;;;15.05;;
23539;SDS011;11947;50.810;4.394;2023-04-01T21:34:43;42.88;;;14.60;;
23539;SDS011;11947;50.810;4.394;2023-04-01T21:45:31;39.15;;;15.43;;
23539;SDS011;11947;50.810;4.394;2023-04-01T21:54:02;40.40;;;14.27;;
23539;SDS011;11947;50.810;4.394;2023-04-01T21:57:14;36.25;;;14.55;;
23539;SDS011;11947;50.810;4.394;2023-04-01T22:08:22;36.17;;;12.60;;
23539;SDS011;11947;50.810;4.394;2023-04-01T22:10:59;28.33;;;11.75;;
23539;SDS011;11947;50.810;4.394;2023-04-01T22:14:05;27.15;;;11.45;;
23539;SDS011;11947;50.810;4.394;2023-04-01T22:29:03;32.65;;;12.35;;
23539;SDS011;11947;50.810;4.394;2023-04-01T22:31:12;28.23;;;11.43;;
23539;SDS011;11947;50.810;4.394;2023-04-01T22:33:48;29.48;;;11.88;;
23539;SDS011;11947;50.810;4.394;2023-04-01T22:42:02;31.80;;;13.15;;
23539;SDS011;11947;50.810;4.394;2023-04-01T22:50:36;31.40;;;14.25;;
23539;SDS011;11947;50.810;4.394;2023-04-01T22:56:20;31.98;;;13.20;;
23539;SDS011;11947;50.810;4.394;2023-04-01T22:59:04;31.88;;;13.50;;
23539;SDS011;11947;50.810;4.394;2023-04-01T23:01:40;34.90;;;14.00;;
23539;SDS011;11947;50.810;4.394;2023-04-01T23:04:24;36.88;;;14.80;;
23539;SDS011;11947;50.810;4.394;2023-04-01T23:07:00;38.35;;;15.02;;
23539;SDS011;11947;50.810;4.394;2023-04-01T23:09:33;41.67;;;15.57;;
23539;SDS011;11947;50.810;4.394;2023-04-01T23:12:04;42.33;;;15.63;;
23539;SDS011;11947;50.810;4.394;2023-04-01T23:14:52;39.45;;;14.95;;
23539;SDS011;11947;50.810;4.394;2023-04-01T23:17:29;34.22;;;13.25;;
23539;SDS011;11947;50.810;4.394;2023-04-01T23:23:03;37.78;;;14.65;;
23539;SDS011;11947;50.810;4.394;2023-04-01T23:28:32;29.80;;;12.55;;
23539;SDS011;11947;50.810;4.394;2023-04-01T23:31:27;32.47;;;13.20;;
23539;SDS011;11947;50.810;4.394;2023-04-01T23:34:32;30.98;;;12.82;;
23539;SDS011;11947;50.810;4.394;2023-04-01T23:37:12;34.13;;;13.45;;
23539;SDS011;11947;50.810;4.394;2023-04-01T23:39:45;31.63;;;13.23;;
23539;SDS011;11947;50.810;4.394;2023-04-01T23:44:44;31.45;;;12.35;;
23539;SDS011;11947;50.810;4.394;2023-04-01T23:47:21;30.40;;;12.82;;
23539;SDS011;11947;50.810;4.394;2023-04-01T23:50:20;33.63;;;13.10;;
23539;SDS011;11947;50.810;4.394;2023-04-01T23:55:33;37.25;;;14.18;;
